sensor_id;sensor_type;location;lat;lon;timestamp;pressure;altitude;pressure_sealevel;temperature;humidity
17649;BME280;8943;51.110;-4.158;2023-03-26T00:12:04;99541.84;;;13.65;55.15
17649;BME280;8943;51.110;-4.158;2023-03-26T00:14:33;99535.50;;;13.67;54.88
17649;BME280;8943;51.110;-4.158;2023-03-26T00:17:03;99532.50;;;13.70;54.82
17649;BME280;8943;51.110;-4.158;2023-03-26T00:19:32;99531.84;;;13.68;55.19
17649;BME280;8943;51.110;-4.158;2023-03-26T00:22:01;99511.25;;;13.68;55.29
17649;BME280;8943;51.110;-4.158;2023-03-26T00:24:30;99507.41;;;13.71;55.22
17649;BME280;8943;51.110;-4.158;2023-03-26T00:26:58;99511.09;;;13.70;55.10
17649;BME280;8943;51.110;-4.158;2023-03-26T00:29:32;99514.75;;;13.69;54.93
17649;BME280;8943;51.110;-4.158;2023-03-26T00:32:01;99509.59;;;13.67;54.98
17649;BME280;8943;51.110;-4.158;2023-03-26T00:34:30;99501.88;;;13.64;55.00
17649;BME280;8943;51.110;-4.158;2023-03-26T00:37:00;99501.22;;;13.62;55.03
17649;BME280;8943;51.110;-4.158;2023-03-26T00:39:29;99494.16;;;13.61;55.09
17649;BME280;8943;51.110;-4.158;2023-03-26T00:41:59;99504.03;;;13.60;55.40
17649;BME280;8943;51.110;-4.158;2023-03-26T00:44:35;99495.34;;;13.58;54.71
17649;BME280;8943;51.110;-4.158;2023-03-26T00:47:04;99490.97;;;13.57;54.83
17649;BME280;8943;51.110;-4.158;2023-03-26T00:49:36;99498.66;;;13.60;54.99
17649;BME280;8943;51.110;-4.158;2023-03-26T00:52:05;99492.31;;;13.61;54.83
17649;BME280;8943;51.110;-4.158;2023-03-26T00:54:34;99485.16;;;13.62;54.94
17649;BME280;8943;51.110;-4.158;2023-03-26T00:57:05;99487.97;;;13.60;55.04
17649;BME280;8943;51.110;-4.158;2023-03-26T00:59:38;99485.97;;;13.62;54.83
17649;BME280;8943;51.110;-4.158;2023-03-26T01:02:10;99489.50;;;13.63;55.04
17649;BME280;8943;51.110;-4.158;2023-03-26T01:04:44;99485.81;;;13.64;54.75
17649;BME280;8943;51.110;-4.158;2023-03-26T01:07:15;99481.13;;;13.66;54.87
17649;BME280;8943;51.110;-4.158;2023-03-26T01:09:48;99486.66;;;13.64;54.83
17649;BME280;8943;51.110;-4.158;2023-03-26T01:12:22;99479.44;;;13.65;54.37
17649;BME280;8943;51.110;-4.158;2023-03-26T01:14:56;99472.59;;;13.62;54.80
17649;BME280;8943;51.110;-4.158;2023-03-26T01:17:30;99478.44;;;13.66;54.97
17649;BME280;8943;51.110;-4.158;2023-03-26T01:20:09;99486.66;;;13.64;54.83
17649;BME280;8943;51.110;-4.158;2023-03-26T01:25:27;99474.94;;;13.65;54.86
17649;BME280;8943;51.110;-4.158;2023-03-26T01:28:00;99469.44;;;13.67;55.23
17649;BME280;8943;51.110;-4.158;2023-03-26T01:30:34;99462.25;;;13.68;55.04
17649;BME280;8943;51.110;-4.158;2023-03-26T01:33:12;99469.09;;;13.70;54.88
17649;BME280;8943;51.110;-4.158;2023-03-26T01:35:47;99469.25;;;13.69;54.74
17649;BME280;8943;51.110;-4.158;2023-03-26T01:38:25;99473.78;;;13.68;54.60
17649;BME280;8943;51.110;-4.158;2023-03-26T01:41:03;99471.28;;;13.67;55.17
17649;BME280;8943;51.110;-4.158;2023-03-26T01:43:38;99474.94;;;13.65;54.71
17649;BME280;8943;51.110;-4.158;2023-03-26T01:46:14;99487.00;;;13.70;54.94
17649;BME280;8943;51.110;-4.158;2023-03-26T01:48:45;99474.09;;;13.65;54.56
17649;BME280;8943;51.110;-4.158;2023-03-26T01:51:25;99479.59;;;13.55;54.07
17649;BME280;8943;51.110;-4.158;2023-03-26T01:56:45;99481.38;;;13.38;54.80
17649;BME280;8943;51.110;-4.158;2023-03-26T02:04:41;99472.94;;;13.25;54.57
17649;BME280;8943;51.110;-4.158;2023-03-26T02:07:22;99476.47;;;13.26;54.71
17649;BME280;8943;51.110;-4.158;2023-03-26T02:09:57;99468.97;;;13.29;54.81
17649;BME280;8943;51.110;-4.158;2023-03-26T02:12:30;99466.81;;;13.33;55.28
17649;BME280;8943;51.110;-4.158;2023-03-26T02:15:00;99464.63;;;13.36;55.37
17649;BME280;8943;51.110;-4.158;2023-03-26T02:17:29;99466.16;;;13.39;55.37
17649;BME280;8943;51.110;-4.158;2023-03-26T02:20:00;99466.16;;;13.39;55.08
17649;BME280;8943;51.110;-4.158;2023-03-26T02:22:36;99466.16;;;13.39;55.22
17649;BME280;8943;51.110;-4.158;2023-03-26T02:25:07;99459.28;;;13.36;55.36
17649;BME280;8943;51.110;-4.158;2023-03-26T02:27:41;99477.34;;;13.34;54.66
17649;BME280;8943;51.110;-4.158;2023-03-26T02:30:13;99478.50;;;13.32;55.36
17649;BME280;8943;51.110;-4.158;2023-03-26T02:32:42;99478.31;;;13.25;55.35
17649;BME280;8943;51.110;-4.158;2023-03-26T02:37:46;99484.28;;;13.19;55.85
17649;BME280;8943;51.110;-4.158;2023-03-26T02:40:19;99473.34;;;13.12;55.61
17649;BME280;8943;51.110;-4.158;2023-03-26T02:42:49;99468.34;;;13.09;56.05
17649;BME280;8943;51.110;-4.158;2023-03-26T02:45:20;99477.66;;;13.05;55.87
17649;BME280;8943;51.110;-4.158;2023-03-26T02:47:49;99461.56;;;12.97;56.11
17649;BME280;8943;51.110;-4.158;2023-03-26T02:50:18;99460.56;;;12.90;55.93
17649;BME280;8943;51.110;-4.158;2023-03-26T02:52:47;99463.03;;;12.83;56.25
17649;BME280;8943;51.110;-4.158;2023-03-26T02:55:16;99453.78;;;12.78;56.46
17649;BME280;8943;51.110;-4.158;2023-03-26T02:57:44;99444.09;;;12.77;56.81
17649;BME280;8943;51.110;-4.158;2023-03-26T03:00:15;99446.78;;;12.77;56.24
17649;BME280;8943;51.110;-4.158;2023-03-26T03:02:49;99438.09;;;12.83;56.47
17649;BME280;8943;51.110;-4.158;2023-03-26T03:05:18;99437.63;;;12.87;56.41
17649;BME280;8943;51.110;-4.158;2023-03-26T03:07:52;99427.16;;;12.94;56.33
17649;BME280;8943;51.110;-4.158;2023-03-26T03:10:24;99434.22;;;13.03;56.16
17649;BME280;8943;51.110;-4.158;2023-03-26T03:12:54;99437.91;;;13.10;56.23
17649;BME280;8943;51.110;-4.158;2023-03-26T03:15:25;99427.59;;;13.15;56.23
17649;BME280;8943;51.110;-4.158;2023-03-26T03:17:54;99430.94;;;13.18;55.68
17649;BME280;8943;51.110;-4.158;2023-03-26T03:20:22;99417.25;;;13.21;55.89
17649;BME280;8943;51.110;-4.158;2023-03-26T03:22:54;99423.13;;;13.24;56.26
17649;BME280;8943;51.110;-4.158;2023-03-26T03:25:22;99423.31;;;13.31;56.13
17649;BME280;8943;51.110;-4.158;2023-03-26T03:27:51;99418.50;;;13.34;56.00
17649;BME280;8943;51.110;-4.158;2023-03-26T03:30:24;99424.03;;;13.41;56.01
17649;BME280;8943;51.110;-4.158;2023-03-26T03:32:52;99416.69;;;13.43;55.95
17649;BME280;8943;51.110;-4.158;2023-03-26T03:35:24;99426.72;;;13.49;56.08
17649;BME280;8943;51.110;-4.158;2023-03-26T03:37:54;99427.56;;;13.50;55.86
17649;BME280;8943;51.110;-4.158;2023-03-26T03:40:23;99431.41;;;13.55;55.90
17649;BME280;8943;51.110;-4.158;2023-03-26T03:42:55;99423.06;;;13.58;56.16
17649;BME280;8943;51.110;-4.158;2023-03-26T03:48:52;99419.38;;;13.59;55.89
17649;BME280;8943;51.110;-4.158;2023-03-26T03:51:23;99422.59;;;13.63;56.07
17649;BME280;8943;51.110;-4.158;2023-03-26T03:53:54;99417.06;;;13.64;55.81
17649;BME280;8943;51.110;-4.158;2023-03-26T03:56:46;99409.34;;;13.61;55.76
17649;BME280;8943;51.110;-4.158;2023-03-26T03:59:17;99418.56;;;13.59;55.69
17649;BME280;8943;51.110;-4.158;2023-03-26T04:01:46;99421.41;;;13.57;55.61
17649;BME280;8943;51.110;-4.158;2023-03-26T04:04:21;99423.38;;;13.55;55.96
17649;BME280;8943;51.110;-4.158;2023-03-26T04:06:51;99414.19;;;13.50;56.18
17649;BME280;8943;51.110;-4.158;2023-03-26T04:09:26;99411.00;;;13.46;55.88
17649;BME280;8943;51.110;-4.158;2023-03-26T04:12:19;99419.19;;;13.45;56.10
17649;BME280;8943;51.110;-4.158;2023-03-26T04:14:50;99409.81;;;13.40;56.00
17649;BME280;8943;51.110;-4.158;2023-03-26T04:17:18;99417.00;;;13.40;55.90
17649;BME280;8943;51.110;-4.158;2023-03-26T04:20:08;99421.69;;;13.38;55.44
17649;BME280;8943;51.110;-4.158;2023-03-26T04:22:41;99417.31;;;13.37;56.21
17649;BME280;8943;51.110;-4.158;2023-03-26T04:25:12;99422.34;;;13.40;56.14
17649;BME280;8943;51.110;-4.158;2023-03-26T04:27:41;99430.19;;;13.42;56.24
17649;BME280;8943;51.110;-4.158;2023-03-26T04:30:12;99423.88;;;13.43;55.97
17649;BME280;8943;51.110;-4.158;2023-03-26T04:32:46;99429.06;;;13.44;55.71
17649;BME280;8943;51.110;-4.158;2023-03-26T04:35:17;99432.75;;;13.43;55.85
17649;BME280;8943;51.110;-4.158;2023-03-26T04:37:45;99437.25;;;13.43;55.90
17649;BME280;8943;51.110;-4.158;2023-03-26T04:40:16;99445.41;;;13.41;56.03
17649;BME280;8943;51.110;-4.158;2023-03-26T04:42:45;99443.56;;;13.42;56.19
17649;BME280;8943;51.110;-4.158;2023-03-26T04:45:28;99447.44;;;13.39;55.96
17649;BME280;8943;51.110;-4.158;2023-03-26T04:48:01;99457.13;;;13.40;55.90
17649;BME280;8943;51.110;-4.158;2023-03-26T04:50:36;99449.09;;;13.40;55.86
17649;BME280;8943;51.110;-4.158;2023-03-26T04:53:09;99446.59;;;13.38;55.90
17649;BME280;8943;51.110;-4.158;2023-03-26T04:55:45;99450.09;;;13.39;55.80
17649;BME280;8943;51.110;-4.158;2023-03-26T04:58:15;99444.06;;;13.37;56.04
17649;BME280;8943;51.110;-4.158;2023-03-26T05:00:46;99454.09;;;13.35;55.85
17649;BME280;8943;51.110;-4.158;2023-03-26T05:03:50;99453.44;;;13.33;55.87
17649;BME280;8943;51.110;-4.158;2023-03-26T05:06:56;99454.59;;;13.30;56.16
17649;BME280;8943;51.110;-4.158;2023-03-26T05:09:53;99460.78;;;13.31;56.04
17649;BME280;8943;51.110;-4.158;2023-03-26T05:12:34;99459.09;;;13.30;56.09
17649;BME280;8943;51.110;-4.158;2023-03-26T05:15:34;99465.97;;;13.32;56.01
17649;BME280;8943;51.110;-4.158;2023-03-26T05:18:54;99484.84;;;13.31;56.06
17649;BME280;8943;51.110;-4.158;2023-03-26T05:21:48;99484.81;;;13.23;56.24
17649;BME280;8943;51.110;-4.158;2023-03-26T05:24:16;99501.47;;;13.17;56.71
17649;BME280;8943;51.110;-4.158;2023-03-26T05:26:46;99499.59;;;13.09;56.46
17649;BME280;8943;51.110;-4.158;2023-03-26T05:33:06;99507.25;;;13.04;56.82
17649;BME280;8943;51.110;-4.158;2023-03-26T05:35:58;99520.16;;;13.08;56.92
17649;BME280;8943;51.110;-4.158;2023-03-26T05:38:59;99522.66;;;13.10;56.84
17649;BME280;8943;51.110;-4.158;2023-03-26T05:42:04;99534.19;;;13.10;56.79
17649;BME280;8943;51.110;-4.158;2023-03-26T05:47:48;99530.41;;;13.21;56.58
17649;BME280;8943;51.110;-4.158;2023-03-26T05:50:52;99537.16;;;13.25;56.87
17649;BME280;8943;51.110;-4.158;2023-03-26T06:12:25;99566.66;;;13.42;56.09
17649;BME280;8943;51.110;-4.158;2023-03-26T06:14:56;99565.69;;;13.43;56.15
17649;BME280;8943;51.110;-4.158;2023-03-26T06:17:35;99573.53;;;13.44;56.36
17649;BME280;8943;51.110;-4.158;2023-03-26T06:20:10;99578.59;;;13.47;56.37
17649;BME280;8943;51.110;-4.158;2023-03-26T06:22:54;99580.25;;;13.48;56.43
17649;BME280;8943;51.110;-4.158;2023-03-26T06:25:35;99582.59;;;13.51;56.45
17649;BME280;8943;51.110;-4.158;2023-03-26T06:28:39;99579.59;;;13.54;56.33
17649;BME280;8943;51.110;-4.158;2023-03-26T06:31:09;99591.16;;;13.55;56.26
17649;BME280;8943;51.110;-4.158;2023-03-26T06:34:15;99586.63;;;13.55;56.00
17649;BME280;8943;51.110;-4.158;2023-03-26T06:36:44;99588.00;;;13.59;56.38
17649;BME280;8943;51.110;-4.158;2023-03-26T06:39:18;99595.84;;;13.61;56.61
17649;BME280;8943;51.110;-4.158;2023-03-26T06:42:02;99601.91;;;13.63;56.33
17649;BME280;8943;51.110;-4.158;2023-03-26T06:44:44;99605.59;;;13.62;56.50
17649;BME280;8943;51.110;-4.158;2023-03-26T06:47:25;99611.91;;;13.61;56.44
17649;BME280;8943;51.110;-4.158;2023-03-26T06:50:04;99614.59;;;13.61;56.04
17649;BME280;8943;51.110;-4.158;2023-03-26T06:52:38;99627.81;;;13.62;56.56
17649;BME280;8943;51.110;-4.158;2023-03-26T06:55:12;99626.00;;;13.63;56.27
17649;BME280;8943;51.110;-4.158;2023-03-26T06:57:56;99637.69;;;13.62;56.40
17649;BME280;8943;51.110;-4.158;2023-03-26T07:03:40;99644.84;;;13.53;56.00
17649;BME280;8943;51.110;-4.158;2023-03-26T07:06:44;99651.78;;;13.46;56.77
17649;BME280;8943;51.110;-4.158;2023-03-26T07:09:18;99659.69;;;13.48;56.79
17649;BME280;8943;51.110;-4.158;2023-03-26T07:11:48;99658.84;;;13.47;56.77
17649;BME280;8943;51.110;-4.158;2023-03-26T07:14:16;99668.56;;;13.48;57.00
17649;BME280;8943;51.110;-4.158;2023-03-26T07:16:45;99675.56;;;13.49;57.10
17649;BME280;8943;51.110;-4.158;2023-03-26T07:19:19;99668.91;;;13.53;57.15
17649;BME280;8943;51.110;-4.158;2023-03-26T07:21:49;99672.50;;;13.62;56.94
17649;BME280;8943;51.110;-4.158;2023-03-26T07:24:18;99679.72;;;13.70;57.09
17649;BME280;8943;51.110;-4.158;2023-03-26T07:27:00;99676.94;;;13.79;56.99
17649;BME280;8943;51.110;-4.158;2023-03-26T07:29:34;99688.53;;;13.88;56.57
17649;BME280;8943;51.110;-4.158;2023-03-26T07:32:12;99691.25;;;13.96;56.90
17649;BME280;8943;51.110;-4.158;2023-03-26T07:34:50;99704.66;;;14.04;56.75
17649;BME280;8943;51.110;-4.158;2023-03-26T07:37:37;99705.72;;;14.11;56.70
17649;BME280;8943;51.110;-4.158;2023-03-26T07:40:16;99720.00;;;14.20;56.98
17649;BME280;8943;51.110;-4.158;2023-03-26T07:42:58;99728.56;;;14.32;56.89
17649;BME280;8943;51.110;-4.158;2023-03-26T07:45:34;99740.31;;;14.39;57.06
17649;BME280;8943;51.110;-4.158;2023-03-26T07:48:11;99744.75;;;14.48;56.70
17649;BME280;8943;51.110;-4.158;2023-03-26T07:50:44;99748.63;;;14.54;56.60
17649;BME280;8943;51.110;-4.158;2023-03-26T07:53:12;99751.28;;;14.54;56.56
17649;BME280;8943;51.110;-4.158;2023-03-26T07:55:48;99760.56;;;14.59;56.54
17649;BME280;8943;51.110;-4.158;2023-03-26T07:58:35;99760.91;;;14.64;56.73
17649;BME280;8943;51.110;-4.158;2023-03-26T08:01:12;99764.06;;;14.68;56.64
17649;BME280;8943;51.110;-4.158;2023-03-26T08:03:56;99761.91;;;14.72;56.55
17649;BME280;8943;51.110;-4.158;2023-03-26T08:07:02;99767.81;;;14.75;56.56
17649;BME280;8943;51.110;-4.158;2023-03-26T08:09:55;99769.16;;;14.79;56.61
17649;BME280;8943;51.110;-4.158;2023-03-26T08:12:33;99780.94;;;14.94;56.81
17649;BME280;8943;51.110;-4.158;2023-03-26T08:15:10;99791.66;;;15.03;56.91
17649;BME280;8943;51.110;-4.158;2023-03-26T08:17:42;99799.91;;;15.09;56.66
17649;BME280;8943;51.110;-4.158;2023-03-26T08:20:21;99790.84;;;15.10;56.58
17649;BME280;8943;51.110;-4.158;2023-03-26T08:23:00;99809.97;;;15.15;56.79
17649;BME280;8943;51.110;-4.158;2023-03-26T08:25:32;99816.22;;;15.24;56.76
17649;BME280;8943;51.110;-4.158;2023-03-26T08:28:16;99821.22;;;15.27;56.39
17649;BME280;8943;51.110;-4.158;2023-03-26T08:30:48;99825.44;;;15.30;56.45
17649;BME280;8943;51.110;-4.158;2023-03-26T08:33:28;99825.97;;;15.33;56.49
17649;BME280;8943;51.110;-4.158;2023-03-26T08:35:58;99846.44;;;15.42;56.43
17649;BME280;8943;51.110;-4.158;2023-03-26T08:38:28;99843.91;;;15.41;56.10
17649;BME280;8943;51.110;-4.158;2023-03-26T08:41:23;99856.13;;;15.35;56.05
17649;BME280;8943;51.110;-4.158;2023-03-26T08:44:47;99858.63;;;15.20;55.77
17649;BME280;8943;51.110;-4.158;2023-03-26T08:47:55;99864.97;;;15.11;55.96
17649;BME280;8943;51.110;-4.158;2023-03-26T08:51:12;99868.31;;;15.05;56.30
17649;BME280;8943;51.110;-4.158;2023-03-26T08:54:15;99868.97;;;15.07;56.30
17649;BME280;8943;51.110;-4.158;2023-03-26T08:56:53;99879.44;;;15.18;56.34
17649;BME280;8943;51.110;-4.158;2023-03-26T09:00:02;99886.50;;;15.28;56.13
17649;BME280;8943;51.110;-4.158;2023-03-26T09:03:21;99893.53;;;15.29;56.04
17649;BME280;8943;51.110;-4.158;2023-03-26T09:19:30;99927.94;;;15.33;55.97
17649;BME280;8943;51.110;-4.158;2023-03-26T09:28:52;99946.56;;;15.35;55.75
17649;BME280;8943;51.110;-4.158;2023-03-26T09:31:48;99962.19;;;15.39;55.83
17649;BME280;8943;51.110;-4.158;2023-03-26T09:34:29;99969.75;;;15.44;55.40
17649;BME280;8943;51.110;-4.158;2023-03-26T09:37:12;99969.09;;;15.50;55.38
17649;BME280;8943;51.110;-4.158;2023-03-26T09:39:56;99971.47;;;15.53;55.32
17649;BME280;8943;51.110;-4.158;2023-03-26T09:42:36;99990.44;;;15.60;55.31
17649;BME280;8943;51.110;-4.158;2023-03-26T09:45:35;99991.34;;;15.68;55.29
17649;BME280;8943;51.110;-4.158;2023-03-26T09:48:25;100002.47;;;15.82;55.22
17649;BME280;8943;51.110;-4.158;2023-03-26T09:51:25;100016.91;;;15.89;54.84
17649;BME280;8943;51.110;-4.158;2023-03-26T09:54:16;100028.50;;;15.89;54.44
17649;BME280;8943;51.110;-4.158;2023-03-26T09:56:53;100034.69;;;15.82;54.17
17649;BME280;8943;51.110;-4.158;2023-03-26T09:59:56;100034.16;;;15.78;54.27
17649;BME280;8943;51.110;-4.158;2023-03-26T10:02:47;100047.06;;;15.75;54.21
17649;BME280;8943;51.110;-4.158;2023-03-26T10:05:42;100062.84;;;15.69;53.70
17649;BME280;8943;51.110;-4.158;2023-03-26T10:09:01;100070.94;;;15.52;53.64
17649;BME280;8943;51.110;-4.158;2023-03-26T10:12:13;100085.84;;;15.38;53.62
17649;BME280;8943;51.110;-4.158;2023-03-26T10:15:26;100087.28;;;15.32;53.49
17649;BME280;8943;51.110;-4.158;2023-03-26T10:18:15;100101.88;;;15.30;53.83
17649;BME280;8943;51.110;-4.158;2023-03-26T10:20:58;100115.00;;;15.33;53.90
17649;BME280;8943;51.110;-4.158;2023-03-26T10:24:07;100124.81;;;15.50;54.04
17649;BME280;8943;51.110;-4.158;2023-03-26T10:27:07;100131.53;;;15.72;53.82
17649;BME280;8943;51.110;-4.158;2023-03-26T10:32:59;100136.38;;;16.19;53.98
17649;BME280;8943;51.110;-4.158;2023-03-26T10:35:46;100146.53;;;16.41;53.90
17649;BME280;8943;51.110;-4.158;2023-03-26T10:38:23;100149.78;;;16.61;53.78
17649;BME280;8943;51.110;-4.158;2023-03-26T10:41:06;100159.91;;;16.76;53.31
17649;BME280;8943;51.110;-4.158;2023-03-26T10:43:53;100170.84;;;16.90;52.86
17649;BME280;8943;51.110;-4.158;2023-03-26T10:52:29;100204.66;;;17.01;51.90
17649;BME280;8943;51.110;-4.158;2023-03-26T10:55:09;100216.63;;;17.07;52.15
17649;BME280;8943;51.110;-4.158;2023-03-26T10:57:44;100221.50;;;17.11;51.40
17649;BME280;8943;51.110;-4.158;2023-03-26T11:06:36;100240.97;;;16.81;50.56
17649;BME280;8943;51.110;-4.158;2023-03-26T11:17:57;100293.22;;;16.36;50.55
17649;BME280;8943;51.110;-4.158;2023-03-26T12:08:27;100440.13;;;17.31;48.02
17649;BME280;8943;51.110;-4.158;2023-03-26T14:02:28;100692.94;;;18.12;43.04
17649;BME280;8943;51.110;-4.158;2023-03-26T14:05:05;100712.72;;;17.95;43.18
17649;BME280;8943;51.110;-4.158;2023-03-26T14:07:43;100709.19;;;17.68;42.97
17649;BME280;8943;51.110;-4.158;2023-03-26T14:10:18;100713.41;;;17.45;43.75
17649;BME280;8943;51.110;-4.158;2023-03-26T14:12:58;100723.50;;;17.25;43.97
17649;BME280;8943;51.110;-4.158;2023-03-26T14:15:35;100723.69;;;17.06;44.57
17649;BME280;8943;51.110;-4.158;2023-03-26T14:18:18;100727.84;;;16.82;44.39
17649;BME280;8943;51.110;-4.158;2023-03-26T14:21:00;100737.56;;;16.65;45.27
17649;BME280;8943;51.110;-4.158;2023-03-26T14:23:48;100733.31;;;16.63;45.69
17649;BME280;8943;51.110;-4.158;2023-03-26T14:26:34;100734.38;;;16.80;46.26
17649;BME280;8943;51.110;-4.158;2023-03-26T14:29:43;100736.06;;;17.16;46.91
17649;BME280;8943;51.110;-4.158;2023-03-26T14:32:44;100751.41;;;17.42;48.36
17649;BME280;8943;51.110;-4.158;2023-03-26T14:35:32;100763.75;;;17.70;48.52
17649;BME280;8943;51.110;-4.158;2023-03-26T14:38:46;100767.22;;;18.07;49.60
17649;BME280;8943;51.110;-4.158;2023-03-26T14:41:32;100782.31;;;18.68;47.57
17649;BME280;8943;51.110;-4.158;2023-03-26T14:44:37;100799.84;;;19.30;44.91
17649;BME280;8943;51.110;-4.158;2023-03-26T14:47:17;100801.22;;;19.35;43.94
17649;BME280;8943;51.110;-4.158;2023-03-26T14:50:21;100809.66;;;19.23;44.08
17649;BME280;8943;51.110;-4.158;2023-03-26T14:52:55;100819.41;;;19.16;44.03
17649;BME280;8943;51.110;-4.158;2023-03-26T14:55:55;100817.41;;;19.18;44.57
17649;BME280;8943;51.110;-4.158;2023-03-26T15:14:20;100863.56;;;19.58;43.62
17649;BME280;8943;51.110;-4.158;2023-03-26T15:23:21;100888.94;;;19.73;43.45
17649;BME280;8943;51.110;-4.158;2023-03-26T15:26:42;100897.38;;;19.70;44.54
17649;BME280;8943;51.110;-4.158;2023-03-26T15:29:50;100901.78;;;20.03;46.98
17649;BME280;8943;51.110;-4.158;2023-03-26T15:32:50;100902.19;;;20.64;45.59
17649;BME280;8943;51.110;-4.158;2023-03-26T15:39:06;100905.31;;;21.31;44.05
17649;BME280;8943;51.110;-4.158;2023-03-26T15:41:51;100911.19;;;21.89;43.00
17649;BME280;8943;51.110;-4.158;2023-03-26T15:44:42;100914.91;;;22.49;42.35
17649;BME280;8943;51.110;-4.158;2023-03-26T15:50:36;100930.31;;;23.01;39.46
17649;BME280;8943;51.110;-4.158;2023-03-26T15:53:18;100930.50;;;22.99;38.61
17649;BME280;8943;51.110;-4.158;2023-03-26T15:56:07;100940.34;;;23.15;38.02
17649;BME280;8943;51.110;-4.158;2023-03-26T15:58:44;100937.97;;;23.27;38.59
17649;BME280;8943;51.110;-4.158;2023-03-26T16:01:25;100946.75;;;23.44;37.86
17649;BME280;8943;51.110;-4.158;2023-03-26T16:04:15;100953.28;;;23.64;37.79
17649;BME280;8943;51.110;-4.158;2023-03-26T16:06:56;100956.25;;;23.90;37.26
17649;BME280;8943;51.110;-4.158;2023-03-26T16:09:41;100958.34;;;23.88;36.54
17649;BME280;8943;51.110;-4.158;2023-03-26T16:12:29;100957.84;;;23.78;35.81
17649;BME280;8943;51.110;-4.158;2023-03-26T16:15:25;100957.75;;;23.57;35.50
17649;BME280;8943;51.110;-4.158;2023-03-26T16:18:29;100953.09;;;23.15;36.01
17649;BME280;8943;51.110;-4.158;2023-03-26T16:21:22;100952.78;;;22.80;36.10
17649;BME280;8943;51.110;-4.158;2023-03-26T16:24:21;100966.34;;;22.50;36.23
17649;BME280;8943;51.110;-4.158;2023-03-26T16:30:28;100994.34;;;21.82;36.75
17649;BME280;8943;51.110;-4.158;2023-03-26T16:33:13;101003.81;;;21.55;37.03
17649;BME280;8943;51.110;-4.158;2023-03-26T16:36:03;101009.66;;;21.27;37.37
17649;BME280;8943;51.110;-4.158;2023-03-26T16:38:53;101022.78;;;21.07;37.69
17649;BME280;8943;51.110;-4.158;2023-03-26T16:41:27;101022.03;;;20.74;37.85
17649;BME280;8943;51.110;-4.158;2023-03-26T16:44:06;101030.50;;;20.47;37.76
17649;BME280;8943;51.110;-4.158;2023-03-26T16:46:51;101022.19;;;20.16;38.23
17649;BME280;8943;51.110;-4.158;2023-03-26T16:49:34;101037.69;;;19.89;38.47
17649;BME280;8943;51.110;-4.158;2023-03-26T16:52:26;101045.66;;;19.56;38.86
17649;BME280;8943;51.110;-4.158;2023-03-26T16:55:05;101057.84;;;19.18;39.03
17649;BME280;8943;51.110;-4.158;2023-03-26T16:57:53;101064.63;;;18.78;39.26
17649;BME280;8943;51.110;-4.158;2023-03-26T17:00:40;101068.13;;;18.53;39.57
17649;BME280;8943;51.110;-4.158;2023-03-26T17:03:32;101078.47;;;18.22;40.33
17649;BME280;8943;51.110;-4.158;2023-03-26T17:06:22;101089.88;;;17.98;40.50
17649;BME280;8943;51.110;-4.158;2023-03-26T17:09:00;101092.00;;;17.77;40.64
17649;BME280;8943;51.110;-4.158;2023-03-26T17:11:39;101099.56;;;17.54;40.81
17649;BME280;8943;51.110;-4.158;2023-03-26T17:14:30;101101.06;;;17.38;41.26
17649;BME280;8943;51.110;-4.158;2023-03-26T17:17:18;101116.53;;;17.27;41.47
17649;BME280;8943;51.110;-4.158;2023-03-26T17:19:55;101109.91;;;17.11;41.77
17649;BME280;8943;51.110;-4.158;2023-03-26T17:22:36;101125.41;;;16.99;41.88
17649;BME280;8943;51.110;-4.158;2023-03-26T17:25:20;101134.06;;;16.84;42.50
17649;BME280;8943;51.110;-4.158;2023-03-26T17:27:57;101145.50;;;16.66;42.90
17649;BME280;8943;51.110;-4.158;2023-03-26T17:30:55;101149.03;;;16.38;43.86
17649;BME280;8943;51.110;-4.158;2023-03-26T17:33:27;101151.53;;;16.10;44.27
17649;BME280;8943;51.110;-4.158;2023-03-26T17:36:21;101159.69;;;15.89;44.70
17649;BME280;8943;51.110;-4.158;2023-03-26T17:38:58;101158.34;;;15.74;45.39
17649;BME280;8943;51.110;-4.158;2023-03-26T17:41:53;101167.22;;;15.65;45.46
17649;BME280;8943;51.110;-4.158;2023-03-26T17:44:41;101175.78;;;15.59;45.77
17649;BME280;8943;51.110;-4.158;2023-03-26T17:47:42;101173.34;;;15.56;45.96
17649;BME280;8943;51.110;-4.158;2023-03-26T17:50:15;101172.84;;;15.62;46.03
17649;BME280;8943;51.110;-4.158;2023-03-26T17:52:52;101174.88;;;15.69;45.76
17649;BME280;8943;51.110;-4.158;2023-03-26T17:55:25;101177.47;;;15.81;45.95
17649;BME280;8943;51.110;-4.158;2023-03-26T17:58:00;101189.25;;;15.89;46.71
17649;BME280;8943;51.110;-4.158;2023-03-26T18:00:33;101189.16;;;16.10;46.59
17649;BME280;8943;51.110;-4.158;2023-03-26T18:03:11;101190.06;;;16.20;46.59
17649;BME280;8943;51.110;-4.158;2023-03-26T18:05:42;101211.28;;;16.23;46.60
17649;BME280;8943;51.110;-4.158;2023-03-26T18:08:37;101217.47;;;16.14;46.58
17649;BME280;8943;51.110;-4.158;2023-03-26T18:11:30;101216.72;;;16.03;46.81
17649;BME280;8943;51.110;-4.158;2023-03-26T18:17:44;101245.63;;;15.80;47.05
17649;BME280;8943;51.110;-4.158;2023-03-26T18:20:21;101244.47;;;15.73;47.09
17649;BME280;8943;51.110;-4.158;2023-03-26T18:23:17;101253.19;;;15.65;47.60
17649;BME280;8943;51.110;-4.158;2023-03-26T18:26:49;101248.56;;;15.56;47.76
17649;BME280;8943;51.110;-4.158;2023-03-26T18:29:21;101257.06;;;15.61;48.45
17649;BME280;8943;51.110;-4.158;2023-03-26T18:31:56;101261.13;;;15.66;48.32
17649;BME280;8943;51.110;-4.158;2023-03-26T18:45:31;101297.13;;;15.43;48.40
17649;BME280;8943;51.110;-4.158;2023-03-26T18:48:22;101303.50;;;15.31;49.01
17649;BME280;8943;51.110;-4.158;2023-03-26T18:50:55;101302.59;;;15.20;49.00
17649;BME280;8943;51.110;-4.158;2023-03-26T18:53:51;101307.63;;;15.14;49.20
17649;BME280;8943;51.110;-4.158;2023-03-26T18:56:39;101313.75;;;15.05;49.31
17649;BME280;8943;51.110;-4.158;2023-03-26T19:02:13;101323.41;;;14.96;49.64
17649;BME280;8943;51.110;-4.158;2023-03-26T19:04:46;101330.28;;;14.89;49.52
17649;BME280;8943;51.110;-4.158;2023-03-26T19:07:24;101334.19;;;14.85;49.58
17649;BME280;8943;51.110;-4.158;2023-03-26T19:09:53;101345.00;;;14.83;49.61
17649;BME280;8943;51.110;-4.158;2023-03-26T19:12:29;101345.41;;;14.79;50.08
17649;BME280;8943;51.110;-4.158;2023-03-26T19:15:03;101352.97;;;14.74;49.75
17649;BME280;8943;51.110;-4.158;2023-03-26T19:17:39;101357.13;;;14.66;49.55